Time;durP1;ratioP1;P1;durP2;ratioP2;P2;SDS_P1;SDS_P2;PMS_P1;PMS_P2;Temp;Humidity;BMP_temperature;BMP_pressure;BME280_temperature;BME280_humidity;BME280_pressure;Samples;Min_cycle;Max_cycle;Signal;HPM_P1;HPM_P2
2023/07/26 00:01:21;;;;;;;6.72;4.45;;;;;14.20;95667.00;;;;8223035;28;20219;-70
2023/07/26 00:05:24;;;;;;;7.80;4.60;;;;;14.20;95675.00;;;;8221111;28;20249;-71
2023/07/26 00:09:27;;;;;;;7.82;4.90;;;;;14.20;95674.00;;;;8224662;28;20647;-71
2023/07/26 00:13:34;;;;;;;7.47;4.82;;;;;14.20;95671.00;;;;8204651;28;20246;-71
2023/07/26 00:17:40;;;;;;;11.05;5.40;;;;;14.20;95675.00;;;;8224569;28;20618;-71
2023/07/26 00:21:43;;;;;;;9.13;5.45;;;;;14.20;95681.00;;;;8221691;28;20199;-71
2023/07/26 00:25:46;;;;;;;15.70;6.28;;;;;14.30;95687.00;;;;8221377;28;20321;-72
2023/07/26 00:29:53;;;;;;;12.82;5.95;;;;;14.30;95689.00;;;;8219981;28;20647;-72
2023/07/26 00:33:59;;;;;;;8.55;5.55;;;;;14.30;95696.00;;;;8229299;28;20207;-71
2023/07/26 00:38:04;;;;;;;9.98;5.53;;;;;14.30;95695.00;;;;8228286;28;20218;-71
2023/07/26 00:42:07;;;;;;;10.65;5.97;;;;;14.30;95704.00;;;;8221756;28;20310;-71
2023/07/26 00:46:13;;;;;;;10.68;5.07;;;;;14.40;95714.00;;;;8229576;28;20332;-71
2023/07/26 00:50:16;;;;;;;8.20;5.32;;;;;14.40;95708.00;;;;8228686;28;20294;-71
2023/07/26 00:54:21;;;;;;;8.30;4.68;;;;;14.30;95716.00;;;;8225469;28;20651;-70
2023/07/26 00:58:27;;;;;;;8.13;4.57;;;;;14.30;95726.00;;;;8207878;28;20301;-70
2023/07/26 01:02:36;;;;;;;9.73;5.15;;;;;14.20;95722.00;;;;8227884;28;20349;-70
2023/07/26 01:06:48;;;;;;;8.82;4.90;;;;;14.20;95728.00;;;;8219151;28;20345;-68
2023/07/26 01:10:56;;;;;;;6.68;4.88;;;;;14.10;95732.00;;;;8216603;28;20200;-67
2023/07/26 01:15:05;;;;;;;10.55;5.13;;;;;14.00;95730.00;;;;8206503;28;20231;-67
2023/07/26 01:19:13;;;;;;;7.97;5.00;;;;;14.00;95735.00;;;;8218493;28;20215;-67
2023/07/26 01:23:23;;;;;;;11.93;4.20;;;;;14.00;95733.00;;;;8223984;28;20331;-67
2023/07/26 01:27:26;;;;;;;6.15;4.60;;;;;14.00;95737.00;;;;8217752;28;20302;-68
2023/07/26 01:31:35;;;;;;;10.90;4.97;;;;;14.00;95744.00;;;;8228132;28;20241;-68
2023/07/26 01:35:40;;;;;;;8.23;4.45;;;;;14.00;95755.00;;;;8221953;28;20215;-68
2023/07/26 01:39:45;;;;;;;7.75;4.65;;;;;14.00;95754.00;;;;8227390;28;20225;-67
2023/07/26 01:43:48;;;;;;;13.55;5.25;;;;;14.10;95755.00;;;;8225675;28;20402;-67
2023/07/26 01:47:53;;;;;;;9.57;5.03;;;;;14.10;95761.00;;;;8224667;28;20329;-67
2023/07/26 01:51:59;;;;;;;7.68;4.65;;;;;14.10;95758.00;;;;8219351;28;20213;-67
2023/07/26 01:56:09;;;;;;;8.45;4.72;;;;;14.00;95757.00;;;;8215471;28;20214;-67
2023/07/26 02:00:14;;;;;;;8.80;5.20;;;;;13.90;95765.00;;;;8222185;28;20199;-67
2023/07/26 02:04:19;;;;;;;10.75;4.70;;;;;13.90;95762.00;;;;8216322;28;20600;-68
2023/07/26 02:08:23;;;;;;;6.38;4.60;;;;;13.90;95774.00;;;;8217698;28;20209;-68
2023/07/26 02:12:30;;;;;;;5.68;4.68;;;;;13.80;95773.00;;;;8221155;28;20207;-66
2023/07/26 02:16:38;;;;;;;11.40;5.78;;;;;13.80;95773.00;;;;8218266;28;20203;-67
2023/07/26 02:20:46;;;;;;;12.90;4.95;;;;;13.80;95780.00;;;;8211634;28;20200;-67
2023/07/26 02:24:50;;;;;;;8.10;4.88;;;;;13.90;95784.00;;;;8217097;28;20294;-67
2023/07/26 02:28:55;;;;;;;8.23;5.32;;;;;13.80;95783.00;;;;8218118;28;20210;-67
2023/07/26 02:32:59;;;;;;;10.98;5.55;;;;;13.80;95782.00;;;;8214099;28;20537;-66
2023/07/26 02:37:02;;;;;;;10.93;6.22;;;;;13.80;95782.00;;;;8229200;28;20214;-66
2023/07/26 02:41:07;;;;;;;9.35;5.93;;;;;13.90;95791.00;;;;8199807;28;20306;-67
2023/07/26 02:45:12;;;;;;;11.05;5.70;;;;;14.00;95794.00;;;;8221807;28;20227;-67
2023/07/26 02:49:18;;;;;;;10.68;6.22;;;;;14.00;95803.00;;;;8220399;28;20209;-67
2023/07/26 02:53:22;;;;;;;9.88;6.10;;;;;14.10;95812.00;;;;8200218;28;20878;-67
2023/07/26 02:57:28;;;;;;;12.13;6.63;;;;;14.00;95814.00;;;;8205448;28;20847;-67
2023/07/26 03:01:32;;;;;;;9.27;6.63;;;;;14.00;95817.00;;;;8268172;23;21486;-68
2023/07/26 03:05:38;;;;;;;12.60;6.60;;;;;14.00;95821.00;;;;8207237;28;20243;-70
2023/07/26 03:09:41;;;;;;;13.60;6.85;;;;;13.90;95822.00;;;;8211322;28;20238;-70
2023/07/26 03:13:44;;;;;;;13.20;7.22;;;;;13.90;95827.00;;;;8189668;28;20302;-70
2023/07/26 03:17:51;;;;;;;12.02;7.05;;;;;13.90;95830.00;;;;8196044;28;20299;-69
2023/07/26 03:21:54;;;;;;;11.90;6.97;;;;;13.90;95833.00;;;;8210942;28;20207;-68
2023/07/26 03:26:06;;;;;;;16.95;6.72;;;;;13.90;95835.00;;;;8202405;28;20231;-76
2023/07/26 03:30:09;;;;;;;13.45;7.15;;;;;13.90;95836.00;;;;8209217;28;20815;-70
2023/07/26 03:34:16;;;;;;;11.52;6.65;;;;;13.80;95836.00;;;;8202020;28;20290;-78
2023/07/26 03:38:20;;;;;;;10.48;6.78;;;;;13.80;95830.00;;;;8211435;28;20289;-68
2023/07/26 03:42:23;;;;;;;12.60;6.22;;;;;13.80;95830.00;;;;8236054;28;20611;-69
2023/07/26 03:46:29;;;;;;;11.48;6.60;;;;;13.80;95826.00;;;;8233079;28;20272;-67
2023/07/26 03:50:34;;;;;;;10.50;6.22;;;;;13.70;95832.00;;;;8245143;28;20209;-67
2023/07/26 03:54:38;;;;;;;10.93;7.13;;;;;13.60;95840.00;;;;8250059;28;20301;-68
2023/07/26 03:58:43;;;;;;;15.40;7.07;;;;;13.70;95853.00;;;;8255916;28;20249;-68
2023/07/26 04:02:46;;;;;;;9.40;6.82;;;;;13.70;95858.00;;;;8246219;28;20257;-68
2023/07/26 04:06:51;;;;;;;15.77;6.40;;;;;13.70;95855.00;;;;8229412;28;20558;-70
2023/07/26 04:10:56;;;;;;;11.30;6.32;;;;;13.70;95866.00;;;;8225779;28;20207;-68
2023/07/26 04:15:02;;;;;;;12.73;6.63;;;;;13.70;95868.00;;;;8243381;28;20287;-69
2023/07/26 04:19:05;;;;;;;16.35;7.15;;;;;13.70;95866.00;;;;8243232;28;20213;-69
2023/07/26 04:23:16;;;;;;;13.50;7.03;;;;;13.80;95865.00;;;;8244434;28;20321;-68
2023/07/26 04:27:20;;;;;;;11.20;7.10;;;;;13.90;95872.00;;;;8232624;28;20250;-69
2023/07/26 04:31:29;;;;;;;15.65;7.60;;;;;13.80;95884.00;;;;8238950;28;20203;-71
2023/07/26 04:35:35;;;;;;;13.00;7.18;;;;;13.90;95890.00;;;;8236530;28;20716;-68
2023/07/26 04:39:48;;;;;;;14.75;7.70;;;;;13.80;95899.00;;;;8233385;28;20213;-68
2023/07/26 04:43:54;;;;;;;13.57;7.35;;;;;13.80;95900.00;;;;8230866;28;20231;-70
2023/07/26 04:47:58;;;;;;;16.38;7.30;;;;;13.80;95901.00;;;;8235437;28;20716;-69
2023/07/26 04:52:02;;;;;;;13.25;7.50;;;;;13.80;95893.00;;;;8243600;28;20203;-69
2023/07/26 04:56:06;;;;;;;14.30;7.72;;;;;13.80;95901.00;;;;8240096;28;20237;-69
2023/07/26 05:00:10;;;;;;;17.98;7.82;;;;;13.90;95908.00;;;;8231477;28;20207;-69
2023/07/26 05:04:13;;;;;;;12.80;7.28;;;;;14.00;95923.00;;;;8243449;28;20231;-68
2023/07/26 05:08:17;;;;;;;13.55;7.15;;;;;14.00;95912.00;;;;8245965;28;20230;-68
2023/07/26 05:12:22;;;;;;;15.40;6.63;;;;;14.10;95921.00;;;;8251238;28;20806;-69
2023/07/26 05:16:25;;;;;;;10.38;6.75;;;;;14.10;95926.00;;;;8237619;28;20430;-68
2023/07/26 05:20:32;;;;;;;15.50;6.57;;;;;14.20;95929.00;;;;8239436;28;20217;-69
2023/07/26 05:24:35;;;;;;;14.82;6.88;;;;;14.20;95936.00;;;;8244686;28;20317;-68
2023/07/26 05:28:42;;;;;;;9.75;7.22;;;;;14.30;95943.00;;;;8243775;28;20266;-68
2023/07/26 05:32:45;;;;;;;8.43;6.43;;;;;14.40;95946.00;;;;8244335;28;20762;-67
2023/07/26 05:36:54;;;;;;;18.65;6.82;;;;;14.60;95952.00;;;;8244005;28;20672;-67
2023/07/26 05:41:03;;;;;;;10.18;6.47;;;;;14.80;95954.00;;;;8251393;28;20305;-66
2023/07/26 05:45:10;;;;;;;13.85;6.13;;;;;14.80;95957.00;;;;8230460;28;20298;-67
2023/07/26 05:49:13;;;;;;;11.90;6.70;;;;;14.80;95951.00;;;;8241277;28;20321;-66
2023/07/26 05:53:17;;;;;;;13.52;6.43;;;;;15.00;95959.00;;;;8235124;28;20322;-66
2023/07/26 05:57:23;;;;;;;11.32;5.95;;;;;15.10;95964.00;;;;8220402;28;20314;-66
2023/07/26 06:01:28;;;;;;;9.68;6.20;;;;;15.30;95966.00;;;;8231141;28;20298;-65
2023/07/26 06:05:31;;;;;;;10.65;6.85;;;;;15.50;95970.00;;;;8236626;28;20297;-65
2023/07/26 06:09:35;;;;;;;9.50;6.55;;;;;15.70;95980.00;;;;8240005;28;20806;-65
2023/07/26 06:13:40;;;;;;;8.10;6.07;;;;;15.70;95990.00;;;;8234913;28;20584;-65
2023/07/26 06:17:45;;;;;;;9.25;5.93;;;;;15.70;95986.00;;;;8243800;28;20215;-65
2023/07/26 06:21:49;;;;;;;11.50;5.68;;;;;15.70;95984.00;;;;8244182;28;20214;-65
2023/07/26 06:25:55;;;;;;;8.75;6.38;;;;;15.80;95990.00;;;;8239802;28;20297;-65
2023/07/26 06:29:58;;;;;;;14.13;7.13;;;;;15.90;96003.00;;;;8243241;28;20207;-65
2023/07/26 06:34:03;;;;;;;7.32;6.57;;;;;16.10;96001.00;;;;8243153;28;20228;-64
2023/07/26 06:38:08;;;;;;;14.23;7.35;;;;;16.10;96007.00;;;;8243140;28;20369;-65
2023/07/26 06:42:14;;;;;;;15.95;7.30;;;;;16.10;96007.00;;;;8238910;28;20218;-65
2023/07/26 06:46:17;;;;;;;12.00;6.32;;;;;16.20;96020.00;;;;8243103;28;20608;-65
2023/07/26 06:50:22;;;;;;;8.43;6.47;;;;;16.40;96017.00;;;;8241483;28;20211;-65
2023/07/26 06:54:27;;;;;;;10.32;6.28;;;;;16.60;96021.00;;;;8228260;28;20672;-65
2023/07/26 06:58:31;;;;;;;8.25;5.72;;;;;16.60;96027.00;;;;8239303;28;20286;-65
2023/07/26 07:02:34;;;;;;;7.07;5.90;;;;;16.50;96027.00;;;;8246001;28;20965;-65
2023/07/26 07:06:39;;;;;;;11.23;5.80;;;;;16.80;96031.00;;;;8242239;28;20238;-64
2023/07/26 07:10:43;;;;;;;9.10;5.45;;;;;17.00;96037.00;;;;8247839;28;20206;-65
2023/07/26 07:14:47;;;;;;;7.20;4.75;;;;;17.20;96041.00;;;;8233481;28;20299;-65
2023/07/26 07:18:50;;;;;;;10.25;5.13;;;;;17.50;96032.00;;;;8247901;28;20199;-65
2023/07/26 07:22:59;;;;;;;11.50;4.43;;;;;18.30;96029.00;;;;8245898;28;20616;-65
2023/07/26 07:27:03;;;;;;;6.65;4.35;;;;;19.10;96037.00;;;;8246217;28;20885;-65
2023/07/26 07:31:09;;;;;;;10.05;4.35;;;;;19.20;96046.00;;;;8241659;28;20286;-64
2023/07/26 07:35:12;;;;;;;7.22;4.13;;;;;19.10;96039.00;;;;8242099;28;20211;-65
2023/07/26 07:39:16;;;;;;;4.90;4.18;;;;;19.00;96043.00;;;;8242412;28;20545;-65
2023/07/26 07:43:23;;;;;;;4.47;4.03;;;;;18.80;96039.00;;;;8245240;28;20210;-65
2023/07/26 07:47:29;;;;;;;10.18;4.20;;;;;18.80;96045.00;;;;8244760;28;20224;-65
2023/07/26 07:51:36;;;;;;;6.40;3.67;;;;;19.60;96041.00;;;;8245810;28;20234;-64
2023/07/26 07:55:45;;;;;;;4.80;3.40;;;;;20.30;96038.00;;;;8237243;28;20773;-64
2023/07/26 07:59:48;;;;;;;8.60;3.72;;;;;20.50;96042.00;;;;8244948;28;20234;-64
2023/07/26 08:03:53;;;;;;;4.45;3.00;;;;;20.70;96045.00;;;;8237989;28;20346;-64
2023/07/26 08:07:56;;;;;;;5.18;3.10;;;;;20.80;96049.00;;;;8245269;28;20230;-63
2023/07/26 08:12:02;;;;;;;4.45;3.08;;;;;20.80;96047.00;;;;8237940;28;20214;-65
2023/07/26 08:16:05;;;;;;;6.53;3.30;;;;;20.60;96052.00;;;;8248383;28;20214;-65
2023/07/26 08:20:10;;;;;;;7.10;3.10;;;;;20.40;96049.00;;;;8249362;28;20210;-66
2023/07/26 08:24:13;;;;;;;6.20;3.40;;;;;20.30;96057.00;;;;8243240;28;20854;-65
2023/07/26 08:28:18;;;;;;;4.38;2.95;;;;;19.90;96056.00;;;;8250994;28;20222;-64
2023/07/26 08:32:21;;;;;;;5.22;3.25;;;;;19.60;96057.00;;;;8246833;28;20211;-65
2023/07/26 08:36:24;;;;;;;7.70;3.00;;;;;19.80;96059.00;;;;8246093;28;20222;-65
2023/07/26 08:40:30;;;;;;;7.65;2.95;;;;;19.70;96066.00;;;;8250481;28;20223;-64
2023/07/26 08:44:35;;;;;;;7.82;2.92;;;;;20.40;96055.00;;;;8245024;28;20215;-64
2023/07/26 08:48:39;;;;;;;3.22;2.50;;;;;20.40;96056.00;;;;8247462;28;20638;-64
2023/07/26 08:52:42;;;;;;;3.65;2.45;;;;;21.40;96064.00;;;;8247006;28;21092;-63
2023/07/26 08:56:48;;;;;;;2.53;2.33;;;;;22.10;96052.00;;;;8242941;28;20891;-64
2023/07/26 09:00:54;;;;;;;5.57;2.42;;;;;22.50;96050.00;;;;8233259;28;20199;-65
2023/07/26 09:04:57;;;;;;;2.20;1.90;;;;;23.00;96050.00;;;;8239655;28;20289;-65
2023/07/26 09:09:00;;;;;;;3.63;2.42;;;;;23.50;96057.00;;;;8234848;28;20321;-65
2023/07/26 09:13:17;;;;;;;3.28;2.10;;;;;24.20;96039.00;;;;8242738;28;20230;-66
2023/07/26 09:17:37;;;;;;;3.88;2.00;;;;;24.80;96045.00;;;;8231201;28;20221;-66
2023/07/26 09:21:40;;;;;;;5.72;1.98;;;;;24.40;96042.00;;;;8240852;28;20241;-66
2023/07/26 09:25:45;;;;;;;4.18;2.17;;;;;24.10;96045.00;;;;8235095;28;20354;-65
2023/07/26 09:29:56;;;;;;;3.10;1.88;;;;;23.60;96048.00;;;;8233291;28;20944;-65
2023/07/26 09:34:03;;;;;;;2.85;2.25;;;;;24.40;96039.00;;;;8229297;28;20242;-65
2023/07/26 09:38:12;;;;;;;5.13;2.00;;;;;24.20;96041.00;;;;8237803;28;20314;-65
2023/07/26 09:42:15;;;;;;;2.00;1.90;;;;;23.80;96052.00;;;;8240289;28;20208;-65
2023/07/26 09:46:20;;;;;;;4.97;2.10;;;;;23.50;96052.00;;;;8233623;28;20226;-65
2023/07/26 09:50:27;;;;;;;2.75;2.20;;;;;23.00;96036.00;;;;8234842;28;20313;-65
2023/07/26 09:54:35;;;;;;;3.90;2.25;;;;;22.40;96048.00;;;;8238766;28;20237;-65
2023/07/26 09:58:42;;;;;;;2.40;2.20;;;;;22.10;96046.00;;;;8240885;28;20577;-65
2023/07/26 10:02:48;;;;;;;3.25;2.25;;;;;22.00;96046.00;;;;8217835;28;20261;-65
2023/07/26 10:06:58;;;;;;;4.53;2.80;;;;;21.90;96043.00;;;;8244856;28;20229;-66
2023/07/26 10:11:02;;;;;;;4.75;2.90;;;;;22.10;96037.00;;;;8241213;28;20825;-66
2023/07/26 10:15:10;;;;;;;2.90;2.58;;;;;23.30;96039.00;;;;8241552;28;20301;-66
2023/07/26 10:19:16;;;;;;;4.70;3.13;;;;;23.80;96030.00;;;;8231617;28;20203;-66
2023/07/26 10:23:22;;;;;;;4.75;3.33;;;;;23.40;96031.00;;;;8238644;28;20214;-66
2023/07/26 10:27:27;;;;;;;6.10;3.10;;;;;23.90;96025.00;;;;8238465;28;20334;-66
2023/07/26 10:31:31;;;;;;;5.80;3.30;;;;;23.70;96032.00;;;;8236802;28;20199;-66
2023/07/26 10:35:36;;;;;;;2.72;2.53;;;;;23.40;96044.00;;;;8238826;28;20250;-65
2023/07/26 10:39:40;;;;;;;4.30;2.78;;;;;23.30;96028.00;;;;8243502;28;20202;-66
2023/07/26 10:43:49;;;;;;;2.88;2.65;;;;;23.80;96034.00;;;;8239465;28;20207;-66
2023/07/26 10:47:59;;;;;;;2.67;2.47;;;;;23.90;96029.00;;;;8242880;28;20684;-66
2023/07/26 10:52:04;;;;;;;4.10;3.10;;;;;25.00;96022.00;;;;8236512;28;20203;-67
2023/07/26 10:56:12;;;;;;;2.97;2.75;;;;;25.70;96028.00;;;;8241776;28;20202;-67
2023/07/26 11:00:22;;;;;;;3.95;2.80;;;;;25.00;96030.00;;;;8240924;28;20199;-66
2023/07/26 11:04:26;;;;;;;4.95;3.03;;;;;24.70;96037.00;;;;8230896;28;20277;-67
2023/07/26 11:08:42;;;;;;;3.75;2.80;;;;;24.70;96027.00;;;;8241273;28;20245;-66
2023/07/26 11:12:50;;;;;;;3.00;2.55;;;;;24.80;96024.00;;;;8233127;28;20213;-68
2023/07/26 11:16:58;;;;;;;3.08;2.88;;;;;24.50;96036.00;;;;8240416;28;20656;-67
2023/07/26 11:21:01;;;;;;;4.85;3.00;;;;;24.20;96026.00;;;;8241810;28;20204;-67
2023/07/26 11:25:05;;;;;;;3.15;2.88;;;;;24.60;96017.00;;;;8241439;28;20729;-67
2023/07/26 11:29:11;;;;;;;6.05;3.30;;;;;24.20;96024.00;;;;8238742;28;20691;-67
2023/07/26 11:33:25;;;;;;;7.15;3.63;;;;;23.50;96032.00;;;;8243524;28;20239;-66
2023/07/26 11:37:28;;;;;;;4.50;3.40;;;;;22.90;96048.00;;;;8236552;28;20194;-66
2023/07/26 11:41:32;;;;;;;5.47;3.75;;;;;22.50;96053.00;;;;8238153;28;20265;-67
2023/07/26 11:45:37;;;;;;;9.95;2.45;;;;;21.60;96135.00;;;;8214716;28;20538;-67
2023/07/26 11:49:43;;;;;;;5.78;2.45;;;;;19.00;96152.00;;;;8233151;28;20247;-67
2023/07/26 11:53:48;;;;;;;10.90;2.25;;;;;15.70;96164.00;;;;8238043;28;20645;-69
2023/07/26 11:58:03;;;;;;;2.97;2.10;;;;;13.80;96161.00;;;;8232109;28;20207;-73
2023/07/26 12:02:07;;;;;;;2.60;2.38;;;;;13.20;96158.00;;;;8242218;28;20233;-68
2023/07/26 12:06:11;;;;;;;3.20;2.45;;;;;12.70;96169.00;;;;8221507;28;20266;-69
2023/07/26 12:10:14;;;;;;;3.28;2.65;;;;;12.40;96154.00;;;;8239957;28;20353;-71
2023/07/26 12:14:20;;;;;;;3.30;2.78;;;;;12.50;96159.00;;;;8227820;28;20203;-72
2023/07/26 12:18:26;;;;;;;7.82;3.58;;;;;13.00;96166.00;;;;8236175;28;20234;-72
2023/07/26 12:22:29;;;;;;;3.25;3.03;;;;;13.30;96160.00;;;;8241827;28;20701;-73
2023/07/26 12:26:35;;;;;;;3.92;3.25;;;;;13.70;96158.00;;;;8225965;28;20219;-72
2023/07/26 12:30:39;;;;;;;6.03;3.22;;;;;14.20;96161.00;;;;8237804;28;20226;-69
2023/07/26 12:34:46;;;;;;;3.78;3.22;;;;;14.80;96163.00;;;;8234552;28;20217;-70
2023/07/26 12:38:49;;;;;;;3.90;3.40;;;;;15.60;96168.00;;;;8239640;28;20215;-69
2023/07/26 12:42:52;;;;;;;4.70;3.58;;;;;16.00;96163.00;;;;8239927;28;20203;-68
2023/07/26 12:46:55;;;;;;;5.32;3.60;;;;;16.20;96169.00;;;;8237127;28;20395;-68
2023/07/26 12:51:20;;;;;;;4.63;3.95;;;;;16.80;96165.00;;;;8238373;28;20230;-68
2023/07/26 12:55:27;;;;;;;5.45;3.92;;;;;16.80;96170.00;;;;8237998;28;20733;-67
2023/07/26 12:59:32;;;;;;;5.95;4.45;;;;;17.00;96164.00;;;;8221088;28;20230;-67
2023/07/26 13:03:39;;;;;;;6.93;4.82;;;;;17.00;96162.00;;;;8239118;28;20239;-66
2023/07/26 13:07:44;;;;;;;5.45;4.82;;;;;17.20;96156.00;;;;8242277;28;20203;-66
2023/07/26 13:11:48;;;;;;;6.15;5.30;;;;;17.40;96164.00;;;;8239238;28;21186;-65
2023/07/26 13:15:52;;;;;;;6.95;4.55;;;;;17.60;96155.00;;;;8240613;28;20203;-66
2023/07/26 13:19:55;;;;;;;6.93;4.78;;;;;17.90;96149.00;;;;8246072;28;20261;-67
2023/07/26 13:24:01;;;;;;;6.82;3.72;;;;;18.20;96139.00;;;;8250873;28;20202;-66
2023/07/26 13:28:07;;;;;;;4.57;3.50;;;;;18.50;96137.00;;;;8241673;28;20203;-66
2023/07/26 13:32:10;;;;;;;4.28;3.88;;;;;18.80;96134.00;;;;8243900;28;20230;-67
2023/07/26 13:36:13;;;;;;;3.97;3.53;;;;;19.60;96145.00;;;;8240504;28;20287;-66
2023/07/26 13:40:19;;;;;;;6.20;3.10;;;;;19.50;96130.00;;;;8228669;28;20203;-67
2023/07/26 13:44:22;;;;;;;2.90;2.70;;;;;19.30;96140.00;;;;8235132;28;20353;-66
2023/07/26 13:48:27;;;;;;;3.10;2.88;;;;;19.20;96136.00;;;;8233073;28;20294;-66
2023/07/26 13:52:30;;;;;;;2.78;2.55;;;;;19.00;96144.00;;;;8244846;28;20258;-65
2023/07/26 13:56:35;;;;;;;2.42;2.28;;;;;18.90;96137.00;;;;8241604;28;20204;-64
2023/07/26 14:00:38;;;;;;;2.28;2.17;;;;;18.70;96136.00;;;;8233032;28;20819;-65
2023/07/26 14:04:41;;;;;;;3.95;2.30;;;;;18.50;96131.00;;;;8231993;28;20230;-65
2023/07/26 14:08:44;;;;;;;2.85;2.30;;;;;18.30;96143.00;;;;8237247;28;20325;-64
2023/07/26 14:12:49;;;;;;;2.45;2.25;;;;;18.40;96142.00;;;;8235133;28;20235;-64
2023/07/26 14:16:52;;;;;;;3.17;2.30;;;;;19.40;96146.00;;;;8232164;28;20747;-65
2023/07/26 14:20:55;;;;;;;2.83;2.10;;;;;20.50;96144.00;;;;8227675;28;20932;-68
2023/07/26 14:25:02;;;;;;;3.55;2.10;;;;;20.40;96152.00;;;;8227432;28;20231;-69
2023/07/26 14:29:06;;;;;;;1.63;1.60;;;;;20.20;96155.00;;;;8237855;28;20660;-70
2023/07/26 14:33:12;;;;;;;2.03;1.48;;;;;20.50;96149.00;;;;8237034;28;20211;-69
2023/07/26 14:37:21;;;;;;;3.50;1.83;;;;;20.90;96159.00;;;;8224981;28;20732;-68
2023/07/26 14:41:26;;;;;;;2.03;1.70;;;;;21.10;96155.00;;;;8229979;28;20214;-69
2023/07/26 14:45:34;;;;;;;2.00;1.90;;;;;20.70;96155.00;;;;8244063;28;20238;-68
2023/07/26 14:49:37;;;;;;;2.00;1.95;;;;;20.40;96160.00;;;;8238628;28;20262;-69
2023/07/26 14:53:55;;;;;;;3.38;2.20;;;;;20.30;96164.00;;;;8228564;28;20215;-70
2023/07/26 14:58:01;;;;;;;2.13;1.90;;;;;21.00;96159.00;;;;8233888;28;20552;-71
2023/07/26 15:02:06;;;;;;;2.30;2.10;;;;;21.10;96159.00;;;;8233697;28;20228;-69
2023/07/26 15:06:09;;;;;;;2.13;2.03;;;;;21.00;96161.00;;;;8212257;28;20314;-68
2023/07/26 15:10:12;;;;;;;1.92;1.85;;;;;20.90;96161.00;;;;8235310;28;20238;-68
2023/07/26 15:14:19;;;;;;;2.20;1.48;;;;;20.90;96160.00;;;;8234273;28;20242;-67
2023/07/26 15:18:31;;;;;;;2.58;1.63;;;;;21.00;96150.00;;;;8234426;28;20238;-66
2023/07/26 15:22:38;;;;;;;1.83;1.75;;;;;20.30;96146.00;;;;8238902;28;20709;-68
2023/07/26 15:26:41;;;;;;;2.50;1.60;;;;;19.70;96149.00;;;;8230058;28;20687;-67
2023/07/26 15:30:44;;;;;;;2.47;1.73;;;;;19.30;96144.00;;;;8236758;28;20322;-67
2023/07/26 15:34:49;;;;;;;1.85;1.75;;;;;19.00;96151.00;;;;8230406;28;20688;-67
2023/07/26 15:38:52;;;;;;;1.80;1.70;;;;;19.20;96161.00;;;;8251361;28;20234;-68
2023/07/26 15:42:57;;;;;;;3.03;1.60;;;;;19.30;96172.00;;;;8249438;28;20211;-68
2023/07/26 15:47:06;;;;;;;2.08;1.67;;;;;19.90;96175.00;;;;8240434;28;21110;-68
2023/07/26 15:51:14;;;;;;;1.40;1.40;;;;;21.10;96187.00;;;;8243371;28;20234;-68
2023/07/26 15:55:17;;;;;;;2.40;1.60;;;;;22.10;96183.00;;;;8234981;28;20211;-70
2023/07/26 15:59:23;;;;;;;2.75;1.90;;;;;22.70;96167.00;;;;8241649;28;20286;-69
2023/07/26 16:03:26;;;;;;;2.42;1.60;;;;;22.90;96174.00;;;;8243440;28;20234;-69
2023/07/26 16:07:33;;;;;;;1.80;1.70;;;;;22.80;96170.00;;;;8241594;28;20274;-71
2023/07/26 16:11:56;;;;;;;3.55;1.80;;;;;23.00;96169.00;;;;8241666;28;20227;-70
2023/07/26 16:16:02;;;;;;;2.83;1.80;;;;;23.20;96172.00;;;;8238233;28;20889;-70
2023/07/26 16:20:10;;;;;;;2.95;1.70;;;;;23.20;96176.00;;;;8245774;28;20234;-70
2023/07/26 16:24:18;;;;;;;2.00;1.90;;;;;22.90;96175.00;;;;8238387;28;20210;-69
2023/07/26 16:28:22;;;;;;;3.95;1.85;;;;;23.00;96185.00;;;;8243450;28;20211;-69
2023/07/26 16:32:27;;;;;;;1.80;1.70;;;;;23.00;96177.00;;;;8236605;28;20234;-71
2023/07/26 16:36:30;;;;;;;3.33;1.88;;;;;22.80;96182.00;;;;8239416;28;20286;-73
2023/07/26 16:40:37;;;;;;;2.05;1.67;;;;;23.20;96188.00;;;;8239859;28;20202;-71
2023/07/26 16:44:49;;;;;;;1.90;1.80;;;;;23.50;96188.00;;;;8239051;28;20306;-70
2023/07/26 16:48:53;;;;;;;1.63;1.52;;;;;23.60;96192.00;;;;8241169;28;20312;-71
2023/07/26 16:52:58;;;;;;;2.17;1.80;;;;;23.10;96192.00;;;;8242983;28;20237;-71
2023/07/26 16:57:06;;;;;;;1.75;1.65;;;;;22.40;96198.00;;;;8234917;28;20385;-71
2023/07/26 17:01:09;;;;;;;3.30;2.00;;;;;21.70;96204.00;;;;8236646;28;20258;-70
2023/07/26 17:05:14;;;;;;;2.88;2.10;;;;;21.10;96196.00;;;;8236039;28;20790;-71
2023/07/26 17:09:17;;;;;;;4.05;2.25;;;;;20.60;96203.00;;;;8218103;28;20203;-72
2023/07/26 17:13:25;;;;;;;4.03;2.28;;;;;20.20;96213.00;;;;8230033;28;20227;-71
2023/07/26 17:17:38;;;;;;;1.98;1.88;;;;;20.00;96219.00;;;;8236179;28;20203;-71
2023/07/26 17:21:41;;;;;;;2.67;2.15;;;;;19.70;96227.00;;;;8239973;28;20253;-69
2023/07/26 17:25:45;;;;;;;2.22;2.13;;;;;19.30;96234.00;;;;8241003;28;20241;-71
2023/07/26 17:29:49;;;;;;;2.50;2.30;;;;;18.70;96237.00;;;;8245630;28;20326;-68
2023/07/26 17:33:54;;;;;;;3.67;2.08;;;;;18.00;96235.00;;;;8230557;28;20262;-66
2023/07/26 17:37:57;;;;;;;2.80;2.60;;;;;17.20;96239.00;;;;8228811;28;20203;-66
2023/07/26 17:42:00;;;;;;;3.85;2.33;;;;;16.70;96239.00;;;;8239359;28;20238;-65
2023/07/26 17:46:05;;;;;;;4.53;2.50;;;;;16.40;96238.00;;;;8234683;28;20217;-65
2023/07/26 17:50:11;;;;;;;2.72;2.40;;;;;16.20;96242.00;;;;8244426;28;20246;-66
2023/07/26 17:54:14;;;;;;;4.00;2.60;;;;;16.10;96247.00;;;;8237673;28;20226;-66
2023/07/26 17:58:17;;;;;;;3.92;2.70;;;;;16.10;96251.00;;;;8244477;28;20203;-67
2023/07/26 18:02:34;;;;;;;5.03;2.70;;;;;16.00;96266.00;;;;8240807;28;20238;-70
2023/07/26 18:06:39;;;;;;;9.35;2.50;;;;;15.60;96288.00;;;;8235294;28;20610;-68
2023/07/26 18:10:42;;;;;;;2.75;2.20;;;;;14.90;96292.00;;;;8231910;28;20231;-72
2023/07/26 18:14:46;;;;;;;2.33;2.13;;;;;14.50;96289.00;;;;8238025;28;20265;-72
2023/07/26 18:18:51;;;;;;;2.85;2.22;;;;;14.30;96276.00;;;;8236388;28;20203;-73
2023/07/26 18:22:55;;;;;;;2.13;1.90;;;;;14.20;96269.00;;;;8229541;28;20203;-68
2023/07/26 18:26:58;;;;;;;6.28;2.10;;;;;14.10;96265.00;;;;8231759;28;20203;-69
2023/07/26 18:31:02;;;;;;;2.35;2.15;;;;;14.00;96259.00;;;;8245116;28;20289;-66
2023/07/26 18:35:14;;;;;;;2.83;2.10;;;;;14.00;96262.00;;;;8232409;28;20760;-68
2023/07/26 18:39:19;;;;;;;4.07;2.78;;;;;13.90;96262.00;;;;8240421;28;20212;-67
2023/07/26 18:43:23;;;;;;;3.08;2.30;;;;;13.80;96262.00;;;;8235376;28;20204;-68
2023/07/26 18:47:30;;;;;;;6.15;2.30;;;;;13.60;96259.00;;;;8231310;28;20211;-70
2023/07/26 18:51:37;;;;;;;3.63;2.40;;;;;13.60;96252.00;;;;8241643;28;20281;-68
2023/07/26 18:55:43;;;;;;;2.60;2.40;;;;;13.50;96260.00;;;;8242796;28;20199;-69
2023/07/26 18:59:46;;;;;;;3.90;2.63;;;;;13.40;96263.00;;;;8244666;28;20325;-69
2023/07/26 19:03:50;;;;;;;4.47;2.45;;;;;13.30;96276.00;;;;8246717;28;20234;-69
2023/07/26 19:07:57;;;;;;;4.07;2.65;;;;;13.30;96284.00;;;;8243446;28;20322;-70
2023/07/26 19:12:01;;;;;;;3.72;2.85;;;;;13.30;96280.00;;;;8223651;28;20234;-70
2023/07/26 19:16:07;;;;;;;2.70;2.50;;;;;13.20;96273.00;;;;8224336;28;20679;-71
2023/07/26 19:20:11;;;;;;;2.63;2.40;;;;;13.10;96289.00;;;;8234372;28;20825;-71
2023/07/26 19:24:16;;;;;;;3.60;2.47;;;;;13.00;96298.00;;;;8240588;28;20294;-70
2023/07/26 19:28:20;;;;;;;4.68;2.63;;;;;13.00;96299.00;;;;8239142;28;20768;-71
2023/07/26 19:32:25;;;;;;;2.72;2.40;;;;;12.90;96303.00;;;;8223082;28;20245;-71
2023/07/26 19:36:29;;;;;;;2.65;2.45;;;;;12.70;96306.00;;;;8243366;28;20301;-70
2023/07/26 19:40:37;;;;;;;3.67;2.90;;;;;12.60;96302.00;;;;8245727;28;20703;-70
2023/07/26 19:44:40;;;;;;;7.28;2.90;;;;;12.50;96311.00;;;;8244721;28;20253;-70
2023/07/26 19:48:49;;;;;;;5.65;2.92;;;;;12.40;96317.00;;;;8243830;28;20693;-71
2023/07/26 19:52:52;;;;;;;4.32;2.17;;;;;12.30;96311.00;;;;8253100;28;20238;-69
2023/07/26 19:56:56;;;;;;;4.13;2.65;;;;;12.20;96309.00;;;;8225653;28;20290;-70
2023/07/26 20:01:00;;;;;;;2.72;2.42;;;;;12.10;96309.00;;;;8232454;28;20206;-69
2023/07/26 20:05:09;;;;;;;3.65;2.55;;;;;12.10;96308.00;;;;8228370;28;20769;-69
2023/07/26 20:09:12;;;;;;;4.93;2.80;;;;;12.00;96311.00;;;;8216014;28;20218;-69
2023/07/26 20:13:20;;;;;;;3.97;3.00;;;;;11.90;96315.00;;;;8230501;28;20294;-69
2023/07/26 20:17:23;;;;;;;8.13;2.90;;;;;11.90;96325.00;;;;8235416;28;20218;-70
2023/07/26 20:21:26;;;;;;;3.72;2.70;;;;;11.80;96323.00;;;;8234400;28;20229;-71
2023/07/26 20:25:30;;;;;;;2.70;2.50;;;;;11.70;96332.00;;;;8236297;28;20302;-70